sensor_id;sensor_type;location;lat;lon;timestamp;P1;durP1;ratioP1;P2;durP2;ratioP2
80241;SDS011;69556;45.004;7.532;2023-12-14T00:01:34;66.00;;;27.93;;
80241;SDS011;69556;45.004;7.532;2023-12-14T00:04:00;62.78;;;29.35;;
80241;SDS011;69556;45.004;7.532;2023-12-14T00:06:25;70.05;;;29.33;;
80241;SDS011;69556;45.004;7.532;2023-12-14T00:08:51;63.43;;;30.03;;
80241;SDS011;69556;45.004;7.532;2023-12-14T00:11:16;60.37;;;30.83;;
80241;SDS011;69556;45.004;7.532;2023-12-14T00:13:41;67.70;;;30.27;;
80241;SDS011;69556;45.004;7.532;2023-12-14T00:16:07;72.60;;;30.42;;
80241;SDS011;69556;45.004;7.532;2023-12-14T00:18:33;66.43;;;30.30;;
80241;SDS011;69556;45.004;7.532;2023-12-14T00:20:58;66.05;;;29.83;;
80241;SDS011;69556;45.004;7.532;2023-12-14T00:23:24;67.88;;;28.77;;
80241;SDS011;69556;45.004;7.532;2023-12-14T00:25:49;79.30;;;33.25;;
80241;SDS011;69556;45.004;7.532;2023-12-14T00:28:15;72.50;;;30.52;;
80241;SDS011;69556;45.004;7.532;2023-12-14T00:30:40;63.88;;;31.75;;
80241;SDS011;69556;45.004;7.532;2023-12-14T00:33:06;69.97;;;30.88;;
80241;SDS011;69556;45.004;7.532;2023-12-14T00:35:31;65.38;;;27.98;;
80241;SDS011;69556;45.004;7.532;2023-12-14T00:37:57;70.10;;;29.52;;
80241;SDS011;69556;45.004;7.532;2023-12-14T00:40:22;68.70;;;26.90;;
80241;SDS011;69556;45.004;7.532;2023-12-14T00:42:47;75.30;;;29.20;;
80241;SDS011;69556;45.004;7.532;2023-12-14T00:45:13;66.95;;;28.00;;
80241;SDS011;69556;45.004;7.532;2023-12-14T00:47:38;63.90;;;29.60;;
80241;SDS011;69556;45.004;7.532;2023-12-14T00:50:04;58.10;;;28.03;;
80241;SDS011;69556;45.004;7.532;2023-12-14T00:52:29;70.63;;;30.30;;
80241;SDS011;69556;45.004;7.532;2023-12-14T00:54:55;68.35;;;29.52;;
80241;SDS011;69556;45.004;7.532;2023-12-14T00:57:20;67.22;;;32.85;;
80241;SDS011;69556;45.004;7.532;2023-12-14T00:59:45;69.43;;;30.37;;
80241;SDS011;69556;45.004;7.532;2023-12-14T01:02:11;68.97;;;31.67;;
80241;SDS011;69556;45.004;7.532;2023-12-14T01:04:36;67.78;;;29.98;;
80241;SDS011;69556;45.004;7.532;2023-12-14T01:07:02;73.47;;;29.70;;
80241;SDS011;69556;45.004;7.532;2023-12-14T01:09:28;76.72;;;30.48;;
80241;SDS011;69556;45.004;7.532;2023-12-14T01:11:53;69.47;;;29.17;;
80241;SDS011;69556;45.004;7.532;2023-12-14T01:14:19;64.33;;;27.00;;
80241;SDS011;69556;45.004;7.532;2023-12-14T01:16:44;68.07;;;29.67;;
80241;SDS011;69556;45.004;7.532;2023-12-14T01:19:09;71.38;;;31.05;;
80241;SDS011;69556;45.004;7.532;2023-12-14T01:21:35;72.60;;;33.30;;
80241;SDS011;69556;45.004;7.532;2023-12-14T01:24:00;77.73;;;32.07;;
80241;SDS011;69556;45.004;7.532;2023-12-14T01:26:26;69.82;;;30.17;;
80241;SDS011;69556;45.004;7.532;2023-12-14T01:28:52;72.95;;;32.83;;
80241;SDS011;69556;45.004;7.532;2023-12-14T01:31:17;66.57;;;31.75;;
80241;SDS011;69556;45.004;7.532;2023-12-14T01:33:43;73.40;;;30.52;;
80241;SDS011;69556;45.004;7.532;2023-12-14T01:36:08;62.42;;;29.40;;
80241;SDS011;69556;45.004;7.532;2023-12-14T01:38:33;68.57;;;31.65;;
80241;SDS011;69556;45.004;7.532;2023-12-14T01:40:59;70.38;;;30.95;;
80241;SDS011;69556;45.004;7.532;2023-12-14T01:43:24;70.00;;;32.00;;
80241;SDS011;69556;45.004;7.532;2023-12-14T01:45:50;74.65;;;32.05;;
80241;SDS011;69556;45.004;7.532;2023-12-14T01:48:15;70.35;;;32.13;;
80241;SDS011;69556;45.004;7.532;2023-12-14T01:50:40;67.13;;;30.23;;
80241;SDS011;69556;45.004;7.532;2023-12-14T01:53:06;74.75;;;34.05;;
80241;SDS011;69556;45.004;7.532;2023-12-14T01:55:31;69.20;;;34.87;;
80241;SDS011;69556;45.004;7.532;2023-12-14T01:57:56;70.67;;;33.80;;
80241;SDS011;69556;45.004;7.532;2023-12-14T02:03:11;71.05;;;32.33;;
80241;SDS011;69556;45.004;7.532;2023-12-14T02:05:36;75.25;;;32.40;;
80241;SDS011;69556;45.004;7.532;2023-12-14T02:08:02;66.68;;;30.45;;
80241;SDS011;69556;45.004;7.532;2023-12-14T02:10:27;72.43;;;33.13;;
80241;SDS011;69556;45.004;7.532;2023-12-14T02:12:52;72.60;;;32.20;;
80241;SDS011;69556;45.004;7.532;2023-12-14T02:15:17;68.83;;;31.00;;
80241;SDS011;69556;45.004;7.532;2023-12-14T02:17:43;65.88;;;30.35;;
80241;SDS011;69556;45.004;7.532;2023-12-14T02:20:08;73.80;;;32.20;;
80241;SDS011;69556;45.004;7.532;2023-12-14T02:22:53;67.85;;;31.38;;
80241;SDS011;69556;45.004;7.532;2023-12-14T02:25:19;69.63;;;29.80;;
80241;SDS011;69556;45.004;7.532;2023-12-14T02:27:45;65.70;;;32.47;;
80241;SDS011;69556;45.004;7.532;2023-12-14T02:30:12;70.82;;;31.10;;
80241;SDS011;69556;45.004;7.532;2023-12-14T02:32:40;68.85;;;33.63;;
80241;SDS011;69556;45.004;7.532;2023-12-14T02:35:06;71.55;;;31.75;;
80241;SDS011;69556;45.004;7.532;2023-12-14T02:37:32;65.93;;;32.67;;
80241;SDS011;69556;45.004;7.532;2023-12-14T02:39:58;68.35;;;32.10;;
80241;SDS011;69556;45.004;7.532;2023-12-14T02:42:24;61.50;;;28.95;;
80241;SDS011;69556;45.004;7.532;2023-12-14T02:44:50;62.75;;;29.58;;
80241;SDS011;69556;45.004;7.532;2023-12-14T02:47:15;60.42;;;30.40;;
80241;SDS011;69556;45.004;7.532;2023-12-14T02:49:41;62.25;;;28.65;;
80241;SDS011;69556;45.004;7.532;2023-12-14T02:52:06;60.45;;;29.75;;
80241;SDS011;69556;45.004;7.532;2023-12-14T02:54:32;61.55;;;29.38;;
80241;SDS011;69556;45.004;7.532;2023-12-14T02:56:57;62.90;;;29.07;;
80241;SDS011;69556;45.004;7.532;2023-12-14T02:59:22;65.32;;;33.00;;
80241;SDS011;69556;45.004;7.532;2023-12-14T03:01:48;66.23;;;30.37;;
80241;SDS011;69556;45.004;7.532;2023-12-14T03:04:13;61.60;;;30.20;;
80241;SDS011;69556;45.004;7.532;2023-12-14T03:06:38;65.33;;;30.53;;
80241;SDS011;69556;45.004;7.532;2023-12-14T03:09:04;65.57;;;27.67;;
80241;SDS011;69556;45.004;7.532;2023-12-14T03:11:30;63.63;;;32.88;;
80241;SDS011;69556;45.004;7.532;2023-12-14T03:13:56;63.08;;;29.08;;
80241;SDS011;69556;45.004;7.532;2023-12-14T03:16:21;56.23;;;27.73;;
80241;SDS011;69556;45.004;7.532;2023-12-14T03:18:46;61.55;;;28.58;;
80241;SDS011;69556;45.004;7.532;2023-12-14T03:21:14;58.05;;;26.65;;
80241;SDS011;69556;45.004;7.532;2023-12-14T03:23:39;60.90;;;28.00;;
80241;SDS011;69556;45.004;7.532;2023-12-14T03:26:05;59.47;;;28.87;;
80241;SDS011;69556;45.004;7.532;2023-12-14T03:28:30;61.93;;;28.90;;
80241;SDS011;69556;45.004;7.532;2023-12-14T03:30:55;60.10;;;28.03;;
80241;SDS011;69556;45.004;7.532;2023-12-14T03:33:20;59.63;;;29.80;;
80241;SDS011;69556;45.004;7.532;2023-12-14T03:35:47;69.07;;;32.83;;
80241;SDS011;69556;45.004;7.532;2023-12-14T03:38:15;61.63;;;29.52;;
80241;SDS011;69556;45.004;7.532;2023-12-14T03:40:40;63.63;;;27.77;;
80241;SDS011;69556;45.004;7.532;2023-12-14T03:43:06;59.50;;;29.13;;
80241;SDS011;69556;45.004;7.532;2023-12-14T03:45:31;64.10;;;29.25;;
80241;SDS011;69556;45.004;7.532;2023-12-14T03:47:56;58.95;;;27.38;;
80241;SDS011;69556;45.004;7.532;2023-12-14T03:50:22;62.47;;;27.67;;
80241;SDS011;69556;45.004;7.532;2023-12-14T03:52:47;64.88;;;26.75;;
80241;SDS011;69556;45.004;7.532;2023-12-14T03:55:13;63.70;;;30.30;;
80241;SDS011;69556;45.004;7.532;2023-12-14T03:57:40;69.05;;;28.00;;
80241;SDS011;69556;45.004;7.532;2023-12-14T04:00:06;65.95;;;29.92;;
80241;SDS011;69556;45.004;7.532;2023-12-14T04:02:34;68.88;;;30.15;;
80241;SDS011;69556;45.004;7.532;2023-12-14T04:05:00;68.97;;;30.73;;
80241;SDS011;69556;45.004;7.532;2023-12-14T04:07:25;62.27;;;30.23;;
80241;SDS011;69556;45.004;7.532;2023-12-14T04:09:50;52.78;;;26.38;;
80241;SDS011;69556;45.004;7.532;2023-12-14T04:12:16;51.42;;;25.00;;
80241;SDS011;69556;45.004;7.532;2023-12-14T04:14:41;59.78;;;26.30;;
80241;SDS011;69556;45.004;7.532;2023-12-14T04:17:06;60.00;;;28.03;;
80241;SDS011;69556;45.004;7.532;2023-12-14T04:19:32;62.67;;;28.45;;
80241;SDS011;69556;45.004;7.532;2023-12-14T04:21:58;59.17;;;27.23;;
80241;SDS011;69556;45.004;7.532;2023-12-14T04:24:23;61.90;;;29.10;;
80241;SDS011;69556;45.004;7.532;2023-12-14T04:26:48;62.67;;;26.70;;
80241;SDS011;69556;45.004;7.532;2023-12-14T04:29:13;54.83;;;23.77;;
80241;SDS011;69556;45.004;7.532;2023-12-14T04:31:39;56.93;;;25.07;;
80241;SDS011;69556;45.004;7.532;2023-12-14T04:34:04;60.93;;;27.47;;
80241;SDS011;69556;45.004;7.532;2023-12-14T04:36:29;59.37;;;27.47;;
80241;SDS011;69556;45.004;7.532;2023-12-14T04:38:55;66.05;;;27.95;;
80241;SDS011;69556;45.004;7.532;2023-12-14T04:41:20;56.47;;;25.43;;
80241;SDS011;69556;45.004;7.532;2023-12-14T04:43:45;60.63;;;26.53;;
80241;SDS011;69556;45.004;7.532;2023-12-14T04:46:11;58.33;;;27.10;;
80241;SDS011;69556;45.004;7.532;2023-12-14T04:48:36;61.63;;;28.17;;
80241;SDS011;69556;45.004;7.532;2023-12-14T04:51:01;60.30;;;27.13;;
80241;SDS011;69556;45.004;7.532;2023-12-14T04:53:27;52.70;;;24.38;;
80241;SDS011;69556;45.004;7.532;2023-12-14T04:55:52;61.47;;;27.90;;
80241;SDS011;69556;45.004;7.532;2023-12-14T04:58:17;53.00;;;23.83;;
80241;SDS011;69556;45.004;7.532;2023-12-14T05:00:42;55.83;;;25.67;;
80241;SDS011;69556;45.004;7.532;2023-12-14T05:03:08;58.85;;;26.55;;
80241;SDS011;69556;45.004;7.532;2023-12-14T05:05:33;52.38;;;24.67;;
80241;SDS011;69556;45.004;7.532;2023-12-14T05:07:59;59.53;;;27.77;;
80241;SDS011;69556;45.004;7.532;2023-12-14T05:10:24;56.45;;;24.70;;
80241;SDS011;69556;45.004;7.532;2023-12-14T05:12:49;55.33;;;22.60;;
80241;SDS011;69556;45.004;7.532;2023-12-14T05:15:15;58.00;;;26.10;;
80241;SDS011;69556;45.004;7.532;2023-12-14T05:17:40;57.43;;;27.10;;
80241;SDS011;69556;45.004;7.532;2023-12-14T05:20:09;60.63;;;28.65;;
80241;SDS011;69556;45.004;7.532;2023-12-14T05:22:35;60.88;;;29.30;;
80241;SDS011;69556;45.004;7.532;2023-12-14T05:25:00;62.33;;;26.35;;
80241;SDS011;69556;45.004;7.532;2023-12-14T05:27:25;63.20;;;28.87;;
80241;SDS011;69556;45.004;7.532;2023-12-14T05:29:51;58.40;;;25.70;;
80241;SDS011;69556;45.004;7.532;2023-12-14T05:32:16;64.03;;;26.88;;
80241;SDS011;69556;45.004;7.532;2023-12-14T05:34:42;58.47;;;26.70;;
80241;SDS011;69556;45.004;7.532;2023-12-14T05:37:07;58.37;;;25.27;;
80241;SDS011;69556;45.004;7.532;2023-12-14T05:39:32;59.42;;;26.38;;
80241;SDS011;69556;45.004;7.532;2023-12-14T05:41:58;59.72;;;25.25;;
80241;SDS011;69556;45.004;7.532;2023-12-14T05:44:24;62.10;;;29.52;;
80241;SDS011;69556;45.004;7.532;2023-12-14T05:46:49;65.05;;;26.85;;
80241;SDS011;69556;45.004;7.532;2023-12-14T05:49:15;60.33;;;27.00;;
80241;SDS011;69556;45.004;7.532;2023-12-14T05:51:40;57.05;;;26.00;;
80241;SDS011;69556;45.004;7.532;2023-12-14T05:54:06;57.10;;;26.58;;
80241;SDS011;69556;45.004;7.532;2023-12-14T05:56:31;59.78;;;28.25;;
80241;SDS011;69556;45.004;7.532;2023-12-14T05:58:57;55.88;;;25.13;;
80241;SDS011;69556;45.004;7.532;2023-12-14T06:01:23;62.80;;;29.17;;
80241;SDS011;69556;45.004;7.532;2023-12-14T06:03:49;57.33;;;26.52;;
80241;SDS011;69556;45.004;7.532;2023-12-14T06:06:14;66.80;;;27.67;;
80241;SDS011;69556;45.004;7.532;2023-12-14T06:08:40;56.00;;;26.20;;
80241;SDS011;69556;45.004;7.532;2023-12-14T06:11:06;63.15;;;25.92;;
80241;SDS011;69556;45.004;7.532;2023-12-14T06:13:32;52.58;;;24.88;;
80241;SDS011;69556;45.004;7.532;2023-12-14T06:15:57;58.75;;;25.35;;
80241;SDS011;69556;45.004;7.532;2023-12-14T06:18:23;53.10;;;24.17;;
80241;SDS011;69556;45.004;7.532;2023-12-14T06:20:48;57.65;;;26.10;;
80241;SDS011;69556;45.004;7.532;2023-12-14T06:23:14;50.63;;;24.53;;
80241;SDS011;69556;45.004;7.532;2023-12-14T06:25:39;56.40;;;25.77;;
80241;SDS011;69556;45.004;7.532;2023-12-14T06:28:04;51.77;;;23.73;;
80241;SDS011;69556;45.004;7.532;2023-12-14T06:30:30;44.70;;;21.83;;
80241;SDS011;69556;45.004;7.532;2023-12-14T06:32:55;53.85;;;23.58;;
80241;SDS011;69556;45.004;7.532;2023-12-14T06:35:21;48.97;;;23.27;;
80241;SDS011;69556;45.004;7.532;2023-12-14T06:37:46;56.20;;;21.60;;
80241;SDS011;69556;45.004;7.532;2023-12-14T06:40:12;47.08;;;23.35;;
80241;SDS011;69556;45.004;7.532;2023-12-14T06:42:37;46.42;;;21.42;;
80241;SDS011;69556;45.004;7.532;2023-12-14T06:45:03;46.93;;;22.33;;
80241;SDS011;69556;45.004;7.532;2023-12-14T06:47:28;47.53;;;21.40;;
80241;SDS011;69556;45.004;7.532;2023-12-14T06:49:54;45.10;;;21.63;;
80241;SDS011;69556;45.004;7.532;2023-12-14T06:52:20;44.00;;;21.23;;
80241;SDS011;69556;45.004;7.532;2023-12-14T06:54:46;46.43;;;22.77;;
80241;SDS011;69556;45.004;7.532;2023-12-14T06:57:11;50.20;;;20.97;;
80241;SDS011;69556;45.004;7.532;2023-12-14T06:59:36;49.67;;;23.58;;
80241;SDS011;69556;45.004;7.532;2023-12-14T07:02:02;52.72;;;22.85;;
80241;SDS011;69556;45.004;7.532;2023-12-14T07:04:27;47.08;;;21.67;;
80241;SDS011;69556;45.004;7.532;2023-12-14T07:06:53;46.10;;;21.37;;
80241;SDS011;69556;45.004;7.532;2023-12-14T07:09:18;46.58;;;21.77;;
80241;SDS011;69556;45.004;7.532;2023-12-14T07:11:44;46.72;;;22.27;;
80241;SDS011;69556;45.004;7.532;2023-12-14T07:14:09;52.03;;;23.75;;
80241;SDS011;69556;45.004;7.532;2023-12-14T07:16:34;49.03;;;24.00;;
80241;SDS011;69556;45.004;7.532;2023-12-14T07:19:00;47.27;;;21.40;;
80241;SDS011;69556;45.004;7.532;2023-12-14T07:21:25;43.87;;;21.27;;
80241;SDS011;69556;45.004;7.532;2023-12-14T07:23:50;45.57;;;22.27;;
80241;SDS011;69556;45.004;7.532;2023-12-14T07:26:16;51.87;;;24.93;;
80241;SDS011;69556;45.004;7.532;2023-12-14T07:28:41;47.97;;;21.33;;
80241;SDS011;69556;45.004;7.532;2023-12-14T07:31:06;49.33;;;22.48;;
80241;SDS011;69556;45.004;7.532;2023-12-14T07:33:32;47.35;;;22.10;;
80241;SDS011;69556;45.004;7.532;2023-12-14T07:35:57;50.45;;;23.02;;
80241;SDS011;69556;45.004;7.532;2023-12-14T07:38:22;47.58;;;22.77;;
80241;SDS011;69556;45.004;7.532;2023-12-14T07:40:48;53.87;;;22.47;;
80241;SDS011;69556;45.004;7.532;2023-12-14T07:43:15;53.03;;;23.15;;
80241;SDS011;69556;45.004;7.532;2023-12-14T07:45:40;48.22;;;22.77;;
80241;SDS011;69556;45.004;7.532;2023-12-14T07:48:06;46.05;;;21.83;;
80241;SDS011;69556;45.004;7.532;2023-12-14T07:50:31;53.03;;;24.27;;
80241;SDS011;69556;45.004;7.532;2023-12-14T07:52:57;56.00;;;25.63;;
80241;SDS011;69556;45.004;7.532;2023-12-14T07:55:22;52.70;;;22.65;;
80241;SDS011;69556;45.004;7.532;2023-12-14T07:57:47;48.50;;;22.90;;
80241;SDS011;69556;45.004;7.532;2023-12-14T08:00:13;54.88;;;25.08;;
80241;SDS011;69556;45.004;7.532;2023-12-14T08:02:39;58.63;;;26.45;;
80241;SDS011;69556;45.004;7.532;2023-12-14T08:05:04;51.07;;;24.00;;
80241;SDS011;69556;45.004;7.532;2023-12-14T08:07:33;61.35;;;26.92;;
80241;SDS011;69556;45.004;7.532;2023-12-14T08:09:58;51.28;;;25.10;;
80241;SDS011;69556;45.004;7.532;2023-12-14T08:12:24;65.70;;;25.48;;
80241;SDS011;69556;45.004;7.532;2023-12-14T08:14:50;56.28;;;24.45;;
80241;SDS011;69556;45.004;7.532;2023-12-14T08:17:16;51.45;;;23.13;;
80241;SDS011;69556;45.004;7.532;2023-12-14T08:19:42;53.28;;;24.63;;
80241;SDS011;69556;45.004;7.532;2023-12-14T08:22:08;53.50;;;24.92;;
80241;SDS011;69556;45.004;7.532;2023-12-14T08:24:38;55.30;;;27.08;;
80241;SDS011;69556;45.004;7.532;2023-12-14T08:27:04;58.80;;;29.42;;
80241;SDS011;69556;45.004;7.532;2023-12-14T08:29:30;59.65;;;26.42;;
80241;SDS011;69556;45.004;7.532;2023-12-14T08:31:55;62.13;;;26.77;;
80241;SDS011;69556;45.004;7.532;2023-12-14T08:34:22;60.80;;;24.85;;
80241;SDS011;69556;45.004;7.532;2023-12-14T08:36:49;62.55;;;27.40;;
80241;SDS011;69556;45.004;7.532;2023-12-14T08:39:14;57.10;;;28.13;;
80241;SDS011;69556;45.004;7.532;2023-12-14T08:41:39;63.93;;;26.70;;
80241;SDS011;69556;45.004;7.532;2023-12-14T08:44:06;64.45;;;29.33;;
80241;SDS011;69556;45.004;7.532;2023-12-14T08:46:38;55.90;;;24.73;;
80241;SDS011;69556;45.004;7.532;2023-12-14T08:49:07;54.40;;;24.65;;
80241;SDS011;69556;45.004;7.532;2023-12-14T08:51:32;53.87;;;26.53;;
80241;SDS011;69556;45.004;7.532;2023-12-14T08:53:58;59.55;;;27.55;;
80241;SDS011;69556;45.004;7.532;2023-12-14T08:56:23;54.37;;;29.57;;
80241;SDS011;69556;45.004;7.532;2023-12-14T08:58:48;61.00;;;28.85;;
80241;SDS011;69556;45.004;7.532;2023-12-14T09:01:20;60.78;;;27.73;;
80241;SDS011;69556;45.004;7.532;2023-12-14T09:03:46;64.53;;;26.58;;
80241;SDS011;69556;45.004;7.532;2023-12-14T09:06:11;70.07;;;30.20;;
80241;SDS011;69556;45.004;7.532;2023-12-14T09:08:37;66.00;;;29.25;;
80241;SDS011;69556;45.004;7.532;2023-12-14T09:11:02;59.33;;;25.60;;
80241;SDS011;69556;45.004;7.532;2023-12-14T09:13:28;58.85;;;27.10;;
80241;SDS011;69556;45.004;7.532;2023-12-14T09:15:54;62.75;;;27.95;;
80241;SDS011;69556;45.004;7.532;2023-12-14T09:18:19;62.95;;;30.00;;
80241;SDS011;69556;45.004;7.532;2023-12-14T09:20:48;56.22;;;26.23;;
80241;SDS011;69556;45.004;7.532;2023-12-14T09:23:17;61.10;;;28.70;;
80241;SDS011;69556;45.004;7.532;2023-12-14T09:25:44;55.42;;;27.98;;
80241;SDS011;69556;45.004;7.532;2023-12-14T09:28:10;59.08;;;29.50;;
80241;SDS011;69556;45.004;7.532;2023-12-14T09:30:36;64.75;;;30.58;;
80241;SDS011;69556;45.004;7.532;2023-12-14T09:33:01;56.65;;;26.75;;
80241;SDS011;69556;45.004;7.532;2023-12-14T09:35:27;65.85;;;28.95;;
80241;SDS011;69556;45.004;7.532;2023-12-14T09:37:52;57.17;;;28.20;;
80241;SDS011;69556;45.004;7.532;2023-12-14T09:40:18;58.83;;;27.95;;
80241;SDS011;69556;45.004;7.532;2023-12-14T09:42:44;56.25;;;28.42;;
80241;SDS011;69556;45.004;7.532;2023-12-14T09:45:10;59.15;;;27.13;;
80241;SDS011;69556;45.004;7.532;2023-12-14T09:47:36;64.50;;;30.77;;
80241;SDS011;69556;45.004;7.532;2023-12-14T09:50:02;58.17;;;28.45;;
80241;SDS011;69556;45.004;7.532;2023-12-14T09:52:28;65.68;;;29.75;;
80241;SDS011;69556;45.004;7.532;2023-12-14T09:54:54;58.95;;;28.35;;
80241;SDS011;69556;45.004;7.532;2023-12-14T09:57:19;57.27;;;26.50;;
80241;SDS011;69556;45.004;7.532;2023-12-14T09:59:52;66.03;;;28.33;;
80241;SDS011;69556;45.004;7.532;2023-12-14T10:02:18;55.75;;;27.00;;
80241;SDS011;69556;45.004;7.532;2023-12-14T10:04:45;48.40;;;23.92;;
80241;SDS011;69556;45.004;7.532;2023-12-14T10:07:11;55.85;;;27.00;;
80241;SDS011;69556;45.004;7.532;2023-12-14T10:09:37;56.92;;;28.65;;
80241;SDS011;69556;45.004;7.532;2023-12-14T10:12:06;48.67;;;26.17;;
80241;SDS011;69556;45.004;7.532;2023-12-14T10:14:33;56.78;;;25.73;;
80241;SDS011;69556;45.004;7.532;2023-12-14T10:17:33;59.47;;;27.42;;
80241;SDS011;69556;45.004;7.532;2023-12-14T10:19:57;51.78;;;25.38;;
80241;SDS011;69556;45.004;7.532;2023-12-14T10:22:25;55.15;;;23.13;;
80241;SDS011;69556;45.004;7.532;2023-12-14T10:24:53;50.42;;;25.27;;
80241;SDS011;69556;45.004;7.532;2023-12-14T10:27:18;43.63;;;22.98;;
80241;SDS011;69556;45.004;7.532;2023-12-14T10:29:46;54.80;;;23.67;;
80241;SDS011;69556;45.004;7.532;2023-12-14T10:32:12;51.97;;;25.33;;
80241;SDS011;69556;45.004;7.532;2023-12-14T10:34:37;56.28;;;26.70;;
80241;SDS011;69556;45.004;7.532;2023-12-14T10:37:04;50.55;;;25.27;;
80241;SDS011;69556;45.004;7.532;2023-12-14T10:39:31;50.45;;;23.40;;
80241;SDS011;69556;45.004;7.532;2023-12-14T10:41:58;51.60;;;24.35;;
80241;SDS011;69556;45.004;7.532;2023-12-14T10:44:28;45.10;;;23.63;;
80241;SDS011;69556;45.004;7.532;2023-12-14T10:46:58;47.13;;;24.48;;
80241;SDS011;69556;45.004;7.532;2023-12-14T10:49:24;47.08;;;22.80;;
80241;SDS011;69556;45.004;7.532;2023-12-14T10:51:54;44.30;;;21.05;;
80241;SDS011;69556;45.004;7.532;2023-12-14T10:54:22;39.25;;;20.55;;
80241;SDS011;69556;45.004;7.532;2023-12-14T10:56:54;47.08;;;20.90;;
80241;SDS011;69556;45.004;7.532;2023-12-14T10:59:24;39.88;;;19.60;;
80241;SDS011;69556;45.004;7.532;2023-12-14T11:01:53;44.65;;;22.27;;
80241;SDS011;69556;45.004;7.532;2023-12-14T11:04:22;42.55;;;21.92;;
80241;SDS011;69556;45.004;7.532;2023-12-14T11:06:48;46.42;;;22.33;;
80241;SDS011;69556;45.004;7.532;2023-12-14T11:09:13;50.67;;;21.20;;
80241;SDS011;69556;45.004;7.532;2023-12-14T11:14:14;36.75;;;19.27;;
80241;SDS011;69556;45.004;7.532;2023-12-14T11:16:43;46.20;;;20.42;;
80241;SDS011;69556;45.004;7.532;2023-12-14T11:22:10;38.80;;;19.85;;
80241;SDS011;69556;45.004;7.532;2023-12-14T11:24:42;39.22;;;20.52;;
80241;SDS011;69556;45.004;7.532;2023-12-14T11:27:15;45.15;;;21.30;;
80241;SDS011;69556;45.004;7.532;2023-12-14T11:29:40;44.45;;;20.35;;
80241;SDS011;69556;45.004;7.532;2023-12-14T11:32:07;42.72;;;20.63;;
80241;SDS011;69556;45.004;7.532;2023-12-14T11:34:32;35.70;;;18.83;;
80241;SDS011;69556;45.004;7.532;2023-12-14T11:36:58;43.72;;;19.90;;
80241;SDS011;69556;45.004;7.532;2023-12-14T11:39:23;43.40;;;21.75;;
80241;SDS011;69556;45.004;7.532;2023-12-14T11:41:59;43.55;;;21.25;;
80241;SDS011;69556;45.004;7.532;2023-12-14T11:44:28;44.00;;;21.00;;
80241;SDS011;69556;45.004;7.532;2023-12-14T11:46:53;47.70;;;19.67;;
80241;SDS011;69556;45.004;7.532;2023-12-14T11:49:19;38.00;;;19.65;;
80241;SDS011;69556;45.004;7.532;2023-12-14T11:51:47;39.43;;;19.63;;
80241;SDS011;69556;45.004;7.532;2023-12-14T11:54:15;40.22;;;20.58;;
80241;SDS011;69556;45.004;7.532;2023-12-14T11:56:45;39.28;;;18.25;;
80241;SDS011;69556;45.004;7.532;2023-12-14T11:59:11;36.03;;;19.23;;
80241;SDS011;69556;45.004;7.532;2023-12-14T12:01:37;38.22;;;18.27;;
80241;SDS011;69556;45.004;7.532;2023-12-14T12:04:09;36.25;;;17.30;;
80241;SDS011;69556;45.004;7.532;2023-12-14T12:06:35;39.90;;;19.90;;
80241;SDS011;69556;45.004;7.532;2023-12-14T12:09:00;33.67;;;18.23;;
80241;SDS011;69556;45.004;7.532;2023-12-14T12:11:26;37.22;;;19.83;;
80241;SDS011;69556;45.004;7.532;2023-12-14T12:13:53;35.92;;;18.33;;
80241;SDS011;69556;45.004;7.532;2023-12-14T12:16:22;34.92;;;18.35;;
80241;SDS011;69556;45.004;7.532;2023-12-14T12:18:47;33.10;;;18.38;;
80241;SDS011;69556;45.004;7.532;2023-12-14T12:21:14;32.67;;;16.45;;
80241;SDS011;69556;45.004;7.532;2023-12-14T12:23:40;41.20;;;20.43;;
80241;SDS011;69556;45.004;7.532;2023-12-14T12:26:07;40.90;;;19.30;;
80241;SDS011;69556;45.004;7.532;2023-12-14T12:28:35;37.80;;;21.15;;
80241;SDS011;69556;45.004;7.532;2023-12-14T12:31:00;37.22;;;18.85;;
80241;SDS011;69556;45.004;7.532;2023-12-14T12:33:26;33.85;;;18.83;;
80241;SDS011;69556;45.004;7.532;2023-12-14T12:35:52;35.22;;;18.63;;
80241;SDS011;69556;45.004;7.532;2023-12-14T12:38:17;35.75;;;17.75;;
80241;SDS011;69556;45.004;7.532;2023-12-14T12:40:44;32.53;;;18.90;;
80241;SDS011;69556;45.004;7.532;2023-12-14T12:43:09;35.13;;;18.48;;
80241;SDS011;69556;45.004;7.532;2023-12-14T12:45:35;35.88;;;18.98;;
80241;SDS011;69556;45.004;7.532;2023-12-14T12:48:01;39.88;;;19.30;;
80241;SDS011;69556;45.004;7.532;2023-12-14T12:50:31;35.75;;;17.60;;
80241;SDS011;69556;45.004;7.532;2023-12-14T12:52:57;33.38;;;17.63;;
80241;SDS011;69556;45.004;7.532;2023-12-14T12:55:22;36.30;;;17.50;;
80241;SDS011;69556;45.004;7.532;2023-12-14T12:57:48;32.10;;;17.67;;
80241;SDS011;69556;45.004;7.532;2023-12-14T13:00:14;36.42;;;17.83;;
80241;SDS011;69556;45.004;7.532;2023-12-14T13:02:40;32.55;;;18.70;;
80241;SDS011;69556;45.004;7.532;2023-12-14T13:05:07;32.70;;;16.45;;
80241;SDS011;69556;45.004;7.532;2023-12-14T13:07:34;33.47;;;16.58;;
80241;SDS011;69556;45.004;7.532;2023-12-14T13:10:00;29.73;;;14.98;;
80241;SDS011;69556;45.004;7.532;2023-12-14T13:12:25;30.42;;;17.17;;
80241;SDS011;69556;45.004;7.532;2023-12-14T13:14:51;32.78;;;16.27;;
80241;SDS011;69556;45.004;7.532;2023-12-14T13:17:16;28.23;;;16.67;;
80241;SDS011;69556;45.004;7.532;2023-12-14T13:19:43;28.10;;;14.32;;
80241;SDS011;69556;45.004;7.532;2023-12-14T13:22:11;25.88;;;14.65;;
80241;SDS011;69556;45.004;7.532;2023-12-14T13:24:36;27.67;;;13.00;;
80241;SDS011;69556;45.004;7.532;2023-12-14T13:27:02;28.35;;;12.60;;
80241;SDS011;69556;45.004;7.532;2023-12-14T13:29:28;27.38;;;13.85;;
80241;SDS011;69556;45.004;7.532;2023-12-14T13:31:56;20.08;;;11.68;;
80241;SDS011;69556;45.004;7.532;2023-12-14T13:34:21;28.25;;;12.10;;
80241;SDS011;69556;45.004;7.532;2023-12-14T13:36:46;21.08;;;11.02;;
80241;SDS011;69556;45.004;7.532;2023-12-14T13:39:12;18.73;;;10.97;;
80241;SDS011;69556;45.004;7.532;2023-12-14T13:41:37;19.65;;;11.75;;
80241;SDS011;69556;45.004;7.532;2023-12-14T13:44:03;19.38;;;9.55;;
80241;SDS011;69556;45.004;7.532;2023-12-14T13:46:28;19.65;;;10.32;;
80241;SDS011;69556;45.004;7.532;2023-12-14T13:48:54;17.92;;;10.00;;
80241;SDS011;69556;45.004;7.532;2023-12-14T13:51:19;22.60;;;11.13;;
80241;SDS011;69556;45.004;7.532;2023-12-14T13:53:44;20.87;;;12.13;;
80241;SDS011;69556;45.004;7.532;2023-12-14T13:56:10;31.98;;;16.00;;
80241;SDS011;69556;45.004;7.532;2023-12-14T13:58:35;23.58;;;13.13;;
80241;SDS011;69556;45.004;7.532;2023-12-14T14:01:03;26.17;;;14.50;;
80241;SDS011;69556;45.004;7.532;2023-12-14T14:03:31;25.23;;;13.15;;
80241;SDS011;69556;45.004;7.532;2023-12-14T14:05:58;21.55;;;11.65;;
80241;SDS011;69556;45.004;7.532;2023-12-14T14:08:23;21.75;;;12.00;;
80241;SDS011;69556;45.004;7.532;2023-12-14T14:10:48;23.67;;;14.23;;
80241;SDS011;69556;45.004;7.532;2023-12-14T14:13:14;20.13;;;12.48;;
80241;SDS011;69556;45.004;7.532;2023-12-14T14:15:39;22.90;;;11.45;;
80241;SDS011;69556;45.004;7.532;2023-12-14T14:18:05;18.95;;;11.80;;
80241;SDS011;69556;45.004;7.532;2023-12-14T14:20:33;22.83;;;12.98;;
80241;SDS011;69556;45.004;7.532;2023-12-14T14:22:58;23.55;;;12.05;;